createdAt,value
2019-05-13T00:02:17.211Z,25.60
2019-05-13T00:04:47.410Z,26.50
2019-05-13T00:07:17.858Z,24.57
2019-05-13T00:09:47.938Z,27.40
2019-05-13T00:12:18.103Z,26.30
2019-05-13T00:14:48.325Z,23.70
2019-05-13T00:17:18.538Z,24.20
2019-05-13T00:19:48.553Z,24.15
2019-05-13T00:22:18.653Z,25.75
2019-05-13T00:24:48.723Z,25.10
2019-05-13T00:27:18.852Z,25.95
2019-05-13T00:29:48.843Z,24.23
2019-05-13T00:32:19.069Z,29.15
2019-05-13T00:34:49.370Z,31.50
2019-05-13T00:37:19.462Z,36.23
2019-05-13T00:39:49.665Z,30.52
2019-05-13T00:42:19.723Z,32.05
2019-05-13T00:44:49.818Z,33.42
2019-05-13T00:47:20.020Z,31.45
2019-05-13T00:49:50.027Z,30.88
2019-05-13T00:52:20.125Z,27.67
2019-05-13T00:54:50.305Z,29.00
2019-05-13T00:57:20.450Z,32.33
2019-05-13T00:59:50.546Z,33.48
2019-05-13T01:02:21.079Z,33.50
2019-05-13T01:04:53.424Z,30.35
2019-05-13T01:07:28.524Z,30.23
2019-05-13T01:09:54.748Z,28.10
2019-05-13T01:12:24.948Z,32.08
2019-05-13T01:14:55.121Z,29.45
2019-05-13T01:17:25.285Z,30.48
2019-05-13T01:19:55.320Z,27.45
2019-05-13T01:22:25.665Z,29.30
2019-05-13T01:24:55.872Z,28.02
2019-05-13T01:27:26.059Z,27.07
2019-05-13T01:29:56.085Z,25.02
2019-05-13T01:32:26.259Z,24.10
2019-05-13T01:34:56.285Z,24.70
2019-05-13T01:37:39.075Z,27.48
2019-05-13T01:42:27.522Z,23.77
2019-05-13T01:44:57.699Z,22.37
2019-05-13T01:47:27.915Z,19.65
2019-05-13T01:49:57.984Z,21.65
2019-05-13T01:52:28.178Z,18.75
2019-05-13T01:55:03.417Z,21.15
2019-05-13T01:57:34.320Z,19.60
2019-05-13T02:00:05.877Z,19.42
2019-05-13T02:02:35.977Z,20.50
2019-05-13T02:05:07.142Z,21.17
2019-05-13T02:07:37.223Z,21.30
2019-05-13T02:10:08.910Z,17.35
2019-05-13T02:12:39.120Z,20.72
2019-05-13T02:15:09.298Z,18.57
2019-05-13T02:17:39.460Z,18.07
2019-05-13T02:20:09.649Z,19.30
2019-05-13T02:22:39.715Z,22.15
2019-05-13T02:25:09.888Z,20.32
2019-05-13T02:27:40.098Z,21.77
2019-05-13T02:30:10.278Z,22.50
2019-05-13T02:32:42.818Z,24.27
2019-05-13T02:37:43.838Z,23.87
2019-05-13T02:40:14.183Z,22.65
2019-05-13T02:42:44.364Z,22.13
2019-05-13T02:45:14.503Z,19.98
2019-05-13T02:47:44.649Z,22.80
2019-05-13T02:50:17.082Z,18.67
2019-05-13T02:52:48.546Z,21.10
2019-05-13T02:55:18.759Z,20.77
2019-05-13T02:57:48.881Z,18.95
2019-05-13T03:00:19.190Z,16.77
2019-05-13T03:02:52.261Z,20.05
2019-05-13T03:05:21.968Z,19.37
2019-05-13T03:07:53.212Z,19.23
2019-05-13T03:10:23.448Z,17.67
2019-05-13T03:12:53.651Z,16.15
2019-05-13T03:15:25.287Z,15.55
2019-05-13T03:18:05.530Z,16.17
2019-05-13T03:20:35.546Z,14.98
2019-05-13T03:23:05.564Z,14.30
2019-05-13T03:25:35.612Z,14.23
2019-05-13T03:28:05.633Z,16.20
2019-05-13T03:30:35.923Z,18.45
2019-05-13T03:33:11.100Z,17.48
2019-05-13T03:35:44.780Z,16.50
2019-05-13T03:38:12.775Z,17.92
2019-05-13T03:40:45.711Z,17.55
2019-05-13T03:43:16.480Z,18.25
2019-05-13T03:45:48.133Z,17.27
2019-05-13T03:48:23.334Z,19.12
2019-05-13T03:50:53.336Z,18.23
2019-05-13T03:53:23.594Z,18.98
2019-05-13T03:55:54.304Z,16.55
2019-05-13T03:58:25.630Z,21.52
2019-05-13T04:00:55.812Z,20.97
2019-05-13T04:03:25.791Z,29.48
2019-05-13T04:05:55.943Z,27.05
2019-05-13T04:08:26.107Z,25.35
2019-05-13T04:10:56.166Z,19.57
2019-05-13T04:13:26.260Z,19.10
2019-05-13T04:15:56.425Z,16.90
2019-05-13T04:18:26.612Z,17.55
2019-05-13T04:20:56.799Z,18.05
2019-05-13T04:23:26.990Z,15.03
2019-05-13T04:25:57.490Z,13.03
2019-05-13T04:28:27.736Z,12.28
2019-05-13T04:30:57.801Z,11.90
2019-05-13T04:33:28.017Z,12.95
2019-05-13T04:35:58.044Z,12.80
2019-05-13T04:38:28.122Z,12.75
2019-05-13T04:40:58.384Z,14.68
2019-05-13T04:43:33.734Z,12.15
2019-05-13T04:48:33.850Z,10.70
2019-05-13T04:51:03.479Z,11.48
2019-05-13T04:53:33.775Z,11.78
2019-05-13T04:56:03.910Z,9.80
2019-05-13T04:58:34.115Z,11.63
2019-05-13T05:01:09.135Z,10.85
2019-05-13T05:03:46.167Z,9.20
2019-05-13T05:06:18.248Z,10.75
2019-05-13T05:09:03.326Z,11.28
2019-05-13T05:11:53.510Z,11.63
2019-05-13T05:14:37.375Z,10.45
2019-05-13T05:17:25.462Z,9.20
2019-05-13T05:20:03.203Z,9.23
2019-05-13T05:22:35.957Z,10.32
2019-05-13T05:25:13.615Z,12.18
2019-05-13T05:27:47.906Z,9.83
2019-05-13T05:30:21.739Z,10.72
2019-05-13T05:33:11.327Z,10.53
2019-05-13T05:35:45.450Z,9.78
2019-05-13T05:38:17.364Z,10.82
2019-05-13T05:40:48.160Z,11.35
2019-05-13T05:43:22.058Z,11.93
2019-05-13T05:45:53.057Z,10.93
2019-05-13T05:48:24.125Z,10.98
2019-05-13T05:50:55.887Z,13.40
2019-05-13T05:53:26.472Z,11.63
2019-05-13T05:55:56.760Z,11.48
2019-05-13T05:58:28.666Z,11.40
2019-05-13T06:01:02.430Z,12.00
2019-05-13T06:03:33.352Z,11.85
2019-05-13T06:06:03.958Z,11.40
2019-05-13T06:08:34.194Z,12.03
2019-05-13T06:11:04.255Z,12.53
2019-05-13T06:13:34.316Z,11.12
2019-05-13T06:16:04.534Z,11.00
2019-05-13T06:18:34.701Z,13.20
2019-05-13T06:21:04.786Z,11.75
2019-05-13T06:23:35.013Z,11.90
2019-05-13T06:26:05.274Z,11.05
2019-05-13T06:28:35.285Z,11.10
2019-05-13T06:31:05.361Z,11.03
2019-05-13T06:33:35.474Z,10.80
2019-05-13T06:36:05.658Z,10.13
2019-05-13T06:38:35.630Z,11.15
2019-05-13T06:41:10.886Z,10.82
2019-05-13T06:43:37.593Z,11.55
2019-05-13T06:46:07.609Z,11.53
2019-05-13T06:48:37.703Z,11.05
2019-05-13T06:51:07.757Z,11.28
2019-05-13T06:53:37.957Z,10.72
2019-05-13T06:56:08.051Z,10.78
2019-05-13T06:58:38.206Z,12.30
2019-05-13T07:01:08.500Z,11.40
2019-05-13T07:03:38.602Z,12.35
2019-05-13T07:06:08.746Z,10.72
2019-05-13T07:08:38.897Z,8.18
2019-05-13T07:11:18.636Z,9.15
2019-05-13T07:13:42.240Z,10.90
2019-05-13T07:16:12.598Z,10.13
2019-05-13T07:18:42.903Z,8.95
2019-05-13T07:21:13.029Z,8.38
2019-05-13T07:26:13.753Z,7.05
2019-05-13T07:28:43.955Z,7.65
2019-05-13T07:31:14.752Z,5.83
2019-05-13T07:33:44.981Z,6.87
2019-05-13T07:36:15.153Z,7.30
2019-05-13T07:38:45.445Z,6.92
2019-05-13T07:41:31.324Z,6.42
2019-05-13T07:43:51.586Z,6.92
2019-05-13T07:46:21.871Z,7.35
2019-05-13T07:48:52.308Z,8.60
2019-05-13T07:51:22.417Z,7.17
2019-05-13T07:53:53.462Z,7.42
2019-05-13T07:56:23.656Z,6.95
2019-05-13T07:58:53.735Z,6.83
2019-05-13T08:03:54.477Z,7.80
2019-05-13T08:06:24.536Z,7.45
2019-05-13T08:08:54.617Z,6.78
2019-05-13T08:11:24.717Z,6.50
2019-05-13T08:13:54.786Z,6.40
2019-05-13T08:16:24.875Z,6.50
2019-05-13T08:18:55.009Z,7.65
2019-05-13T08:21:25.125Z,5.97
2019-05-13T08:23:55.230Z,6.62
2019-05-13T08:26:25.496Z,6.72
2019-05-13T08:29:01.632Z,6.22
2019-05-13T08:31:27.445Z,7.20
2019-05-13T08:33:57.534Z,6.85
2019-05-13T08:36:28.213Z,6.37
2019-05-13T08:38:58.310Z,6.72
2019-05-13T08:41:28.498Z,7.87
2019-05-13T08:43:58.666Z,7.22
2019-05-13T08:46:28.689Z,6.67
2019-05-13T08:48:59.045Z,6.00
2019-05-13T08:51:31.459Z,7.67
2019-05-13T08:54:02.493Z,6.95
2019-05-13T08:56:32.740Z,6.65
2019-05-13T08:59:02.930Z,7.28
2019-05-13T09:01:33.518Z,7.12
2019-05-13T09:04:03.593Z,6.12
2019-05-13T09:06:33.977Z,6.55
2019-05-13T09:09:05.903Z,5.83
2019-05-13T09:11:36.099Z,5.65
2019-05-13T09:14:06.389Z,6.55
2019-05-13T09:16:36.602Z,5.67
2019-05-13T09:19:06.759Z,5.85
2019-05-13T09:21:36.826Z,6.40
2019-05-13T09:24:20.613Z,6.00
2019-05-13T09:26:38.973Z,5.92
2019-05-13T09:29:11.720Z,5.00
2019-05-13T09:31:41.602Z,6.12
2019-05-13T09:34:12.345Z,5.90
2019-05-13T09:36:42.827Z,5.12
2019-05-13T09:39:12.889Z,5.78
2019-05-13T09:41:44.641Z,6.33
2019-05-13T09:44:14.622Z,6.42
2019-05-13T09:46:44.788Z,5.45
2019-05-13T09:49:19.688Z,7.10
2019-05-13T09:51:46.572Z,6.15
2019-05-13T09:54:16.718Z,7.25
2019-05-13T09:56:47.007Z,6.80
2019-05-13T09:59:17.188Z,6.58
2019-05-13T10:01:47.396Z,8.23
2019-05-13T10:04:17.549Z,7.65
2019-05-13T10:06:47.652Z,8.30
2019-05-13T10:09:17.830Z,7.25
2019-05-13T10:11:48.014Z,7.10
2019-05-13T10:14:19.658Z,6.37
2019-05-13T10:16:51.483Z,6.50
2019-05-13T10:19:21.780Z,6.67
2019-05-13T10:21:52.662Z,7.25
2019-05-13T10:24:22.793Z,6.70
2019-05-13T10:26:53.018Z,5.95
2019-05-13T10:31:53.579Z,6.62
2019-05-13T10:34:23.855Z,6.70
2019-05-13T10:36:54.134Z,7.62
2019-05-13T10:39:26.998Z,7.15
2019-05-13T10:41:57.222Z,8.95
2019-05-13T10:44:27.276Z,10.03
2019-05-13T10:46:57.482Z,12.63
2019-05-13T10:49:27.575Z,13.93
2019-05-13T10:51:57.829Z,14.03
2019-05-13T10:54:27.953Z,13.03
2019-05-13T10:56:59.612Z,14.30
2019-05-13T10:59:29.963Z,13.35
2019-05-13T11:02:02.281Z,15.50
2019-05-13T11:04:32.730Z,14.18
2019-05-13T11:07:03.417Z,13.85
2019-05-13T11:09:33.594Z,16.73
2019-05-13T11:12:03.815Z,97.53
2019-05-13T11:14:34.033Z,20.85
2019-05-13T11:17:04.237Z,21.07
2019-05-13T11:19:36.928Z,20.45
2019-05-13T11:22:08.444Z,21.57
2019-05-13T11:24:38.503Z,21.35
2019-05-13T11:27:11.748Z,19.98
2019-05-13T11:29:41.518Z,19.42
2019-05-13T11:34:42.842Z,19.52
2019-05-13T11:37:13.137Z,20.00
2019-05-13T11:39:43.249Z,15.83
2019-05-13T11:42:13.988Z,16.90
2019-05-13T11:44:44.877Z,18.10
2019-05-13T11:47:15.074Z,18.98
2019-05-13T11:49:45.221Z,21.20
2019-05-13T11:52:15.287Z,19.65
2019-05-13T11:54:45.406Z,17.50
2019-05-13T11:57:15.761Z,20.75
2019-05-13T11:59:45.841Z,21.35
2019-05-13T12:02:16.059Z,20.92
2019-05-13T12:04:46.152Z,19.48
2019-05-13T12:07:16.234Z,18.87
2019-05-13T12:09:46.361Z,17.05
2019-05-13T12:12:16.487Z,17.95
2019-05-13T12:15:16.254Z,21.15
2019-05-13T12:17:18.650Z,20.20
2019-05-13T12:19:48.781Z,20.70
2019-05-13T12:22:22.999Z,20.00
2019-05-13T12:24:52.085Z,18.20
2019-05-13T12:27:22.433Z,17.42
2019-05-13T12:29:53.130Z,15.50
2019-05-13T12:32:23.406Z,17.70
2019-05-13T12:34:53.677Z,19.75
2019-05-13T12:37:23.857Z,9.95
2019-05-13T12:39:54.101Z,6.72
2019-05-13T12:42:24.324Z,7.22
2019-05-13T12:45:09.306Z,8.05
2019-05-13T12:49:56.135Z,7.53
2019-05-13T12:52:26.368Z,7.80
2019-05-13T12:54:56.739Z,7.95
2019-05-13T12:57:26.850Z,7.60
2019-05-13T12:59:57.043Z,8.23
2019-05-13T13:02:27.101Z,9.93
2019-05-13T13:05:10.489Z,11.28
2019-05-13T13:07:29.062Z,11.03
2019-05-13T13:09:59.241Z,10.93
2019-05-13T13:12:34.662Z,9.85
2019-05-13T13:15:20.451Z,11.57
2019-05-13T13:20:08.982Z,12.53
2019-05-13T13:22:34.949Z,12.70
2019-05-13T13:25:06.552Z,11.57
2019-05-13T13:30:09.258Z,11.30
2019-05-13T13:32:43.904Z,11.55
2019-05-13T13:35:14.688Z,10.38
2019-05-13T13:40:13.882Z,10.80
2019-05-13T13:42:44.222Z,10.95
2019-05-13T13:45:14.499Z,11.80
2019-05-13T13:47:45.673Z,10.65
2019-05-13T13:50:16.083Z,9.15
2019-05-13T13:52:46.278Z,9.75
2019-05-13T13:55:16.684Z,10.60
2019-05-13T13:57:47.027Z,8.80
2019-05-13T14:00:33.069Z,8.98
2019-05-13T14:02:53.730Z,8.85
2019-05-13T14:05:24.721Z,8.40
2019-05-13T14:07:52.876Z,9.48
2019-05-13T14:10:23.155Z,9.55
2019-05-13T14:12:53.334Z,9.78
2019-05-13T14:15:23.357Z,8.98
2019-05-13T14:17:53.553Z,9.83
2019-05-13T14:20:23.715Z,9.45
2019-05-13T14:22:57.821Z,8.78
2019-05-13T14:25:25.599Z,9.18
2019-05-13T14:27:55.721Z,9.03
2019-05-13T14:30:25.919Z,9.85
2019-05-13T14:32:56.163Z,11.83
2019-05-13T14:35:26.381Z,11.28
2019-05-13T14:37:56.662Z,11.85
2019-05-13T14:40:26.765Z,9.80
2019-05-13T14:42:56.977Z,9.38
2019-05-13T14:45:27.488Z,7.95
2019-05-13T14:47:57.470Z,8.20
2019-05-13T14:50:27.683Z,8.48
2019-05-13T14:52:57.823Z,7.85
2019-05-13T14:55:27.963Z,8.85
2019-05-13T14:57:58.138Z,8.08
2019-05-13T15:00:28.323Z,8.33
2019-05-13T15:02:58.550Z,9.35
2019-05-13T15:05:31.167Z,7.50
2019-05-13T15:08:00.616Z,8.48
2019-05-13T15:10:31.508Z,8.83
2019-05-13T15:13:03.043Z,8.23
2019-05-13T15:15:33.462Z,9.18
2019-05-13T15:18:03.628Z,8.25
2019-05-13T15:20:33.868Z,8.80
2019-05-13T15:23:04.102Z,8.75
2019-05-13T15:25:34.508Z,9.15
2019-05-13T15:28:04.769Z,9.63
2019-05-13T15:30:34.966Z,8.55
2019-05-13T15:33:05.197Z,10.23
2019-05-13T15:35:35.351Z,8.78
2019-05-13T15:38:05.565Z,8.53
2019-05-13T15:40:35.649Z,8.48
2019-05-13T15:43:05.812Z,9.03
2019-05-13T15:45:36.136Z,9.05
2019-05-13T15:48:06.280Z,8.75
2019-05-13T15:50:36.375Z,9.38
2019-05-13T15:53:06.927Z,9.95
2019-05-13T15:55:37.110Z,10.35
2019-05-13T15:58:07.266Z,10.15
2019-05-13T16:00:37.437Z,12.70
2019-05-13T16:03:07.540Z,12.15
2019-05-13T16:05:37.747Z,13.15
2019-05-13T16:08:07.899Z,14.65
2019-05-13T16:10:38.114Z,13.78
2019-05-13T16:13:08.321Z,15.63
2019-05-13T16:15:38.494Z,16.60
2019-05-13T16:18:08.689Z,17.57
2019-05-13T16:20:42.590Z,18.77
2019-05-13T16:25:41.904Z,16.25
2019-05-13T16:28:12.934Z,18.37
2019-05-13T16:30:43.037Z,18.80
2019-05-13T16:33:13.610Z,21.85
2019-05-13T16:35:43.731Z,24.23
2019-05-13T16:38:13.964Z,23.87
2019-05-13T16:40:44.228Z,28.10
2019-05-13T16:43:14.346Z,28.00
2019-05-13T16:45:44.608Z,26.23
2019-05-13T16:48:14.881Z,24.85
2019-05-13T16:50:45.133Z,21.57
2019-05-13T16:53:15.345Z,16.95
2019-05-13T16:55:45.531Z,15.30
2019-05-13T16:58:15.674Z,13.32
2019-05-13T17:00:46.265Z,12.50
2019-05-13T17:03:16.488Z,13.80
2019-05-13T17:05:46.671Z,11.30
2019-05-13T17:08:17.860Z,10.95
2019-05-13T17:10:47.915Z,10.28
2019-05-13T17:13:19.346Z,10.08
2019-05-13T17:15:49.553Z,10.18
2019-05-13T17:18:21.741Z,9.73
2019-05-13T17:20:52.068Z,10.45
2019-05-13T17:23:22.295Z,9.43
2019-05-13T17:25:52.466Z,9.35
2019-05-13T17:28:22.651Z,8.55
2019-05-13T17:30:53.537Z,9.13
2019-05-13T17:33:23.714Z,8.13
2019-05-13T17:35:53.761Z,8.20
2019-05-13T17:38:23.946Z,9.25
2019-05-13T17:40:55.137Z,9.00
2019-05-13T17:43:26.255Z,9.95
2019-05-13T17:45:56.456Z,9.50
2019-05-13T17:48:29.533Z,10.30
2019-05-13T17:50:58.278Z,8.03
2019-05-13T17:53:28.368Z,10.23
2019-05-13T17:55:58.550Z,9.40
2019-05-13T17:58:28.684Z,8.20
2019-05-13T18:00:58.854Z,9.05
2019-05-13T18:03:29.047Z,9.05
2019-05-13T18:05:59.317Z,8.03
2019-05-13T18:08:31.765Z,8.15
2019-05-13T18:11:02.422Z,8.50
2019-05-13T18:13:32.705Z,10.00
2019-05-13T18:16:02.916Z,9.35
2019-05-13T18:18:42.687Z,8.38
2019-05-13T18:23:33.819Z,10.72
2019-05-13T18:26:03.955Z,11.28
2019-05-13T18:28:34.179Z,12.10
2019-05-13T18:31:04.382Z,11.93
2019-05-13T18:33:34.978Z,9.43
2019-05-13T18:36:05.191Z,9.20
2019-05-13T18:38:35.418Z,10.20
2019-05-13T18:41:05.715Z,8.08
2019-05-13T18:43:35.855Z,7.97
2019-05-13T18:46:06.025Z,8.10
2019-05-13T18:48:36.192Z,8.03
2019-05-13T18:51:06.392Z,8.43
2019-05-13T18:53:36.625Z,8.50
2019-05-13T18:56:06.823Z,8.48
2019-05-13T18:58:37.070Z,9.05
2019-05-13T19:01:07.285Z,8.78
2019-05-13T19:03:37.449Z,9.28
2019-05-13T19:06:07.632Z,8.35
2019-05-13T19:08:37.789Z,8.78
2019-05-13T19:11:07.902Z,9.10
2019-05-13T19:13:37.882Z,8.68
2019-05-13T19:16:07.956Z,9.13
2019-05-13T19:18:38.146Z,8.88
2019-05-13T19:21:08.334Z,9.10
2019-05-13T19:23:38.497Z,9.50
2019-05-13T19:26:08.621Z,9.43
2019-05-13T19:28:38.785Z,10.78
2019-05-13T19:31:08.971Z,10.23
2019-05-13T19:33:41.473Z,9.93
2019-05-13T19:36:11.857Z,12.85
2019-05-13T19:38:42.404Z,12.18
2019-05-13T19:41:12.449Z,14.87
2019-05-13T19:43:43.931Z,14.43
2019-05-13T19:46:14.053Z,12.93
2019-05-13T19:48:44.157Z,13.70
2019-05-13T19:51:14.263Z,12.37
2019-05-13T19:53:45.697Z,11.83
2019-05-13T19:56:16.748Z,12.80
2019-05-13T19:58:48.064Z,12.35
2019-05-13T20:01:18.133Z,12.50
2019-05-13T20:03:48.357Z,12.07
2019-05-13T20:06:18.512Z,11.50
2019-05-13T20:08:48.743Z,11.53
2019-05-13T20:11:18.945Z,10.45
2019-05-13T20:13:49.118Z,11.48
2019-05-13T20:16:19.451Z,11.03
2019-05-13T20:18:51.674Z,11.78
2019-05-13T20:21:21.389Z,12.15
2019-05-13T20:23:51.956Z,11.88
2019-05-13T20:26:22.409Z,12.07
2019-05-13T20:28:52.425Z,11.40
2019-05-13T20:31:22.789Z,11.20
2019-05-13T20:33:53.120Z,13.13
2019-05-13T20:36:23.270Z,11.33
2019-05-13T20:38:53.447Z,12.80
2019-05-13T20:41:23.543Z,12.88
2019-05-13T20:43:53.611Z,11.60
2019-05-13T20:46:23.765Z,13.62
2019-05-13T20:48:53.785Z,11.50
2019-05-13T20:51:24.017Z,12.65
2019-05-13T20:53:54.110Z,11.70
2019-05-13T20:56:25.627Z,11.70
2019-05-13T20:58:55.789Z,12.43
2019-05-13T21:01:25.972Z,11.30
2019-05-13T21:03:56.159Z,12.70
2019-05-13T21:06:26.382Z,11.65
2019-05-13T21:08:56.353Z,11.43
2019-05-13T21:11:26.370Z,10.80
2019-05-13T21:13:56.555Z,11.55
2019-05-13T21:16:26.537Z,13.45
2019-05-13T21:18:56.604Z,12.18
2019-05-13T21:21:26.775Z,12.68
2019-05-13T21:23:56.771Z,13.00
2019-05-13T21:26:27.049Z,11.15
2019-05-13T21:28:57.258Z,12.33
2019-05-13T21:31:27.380Z,11.38
2019-05-13T21:33:57.475Z,12.18
2019-05-13T21:36:27.538Z,11.65
2019-05-13T21:38:57.603Z,11.40
2019-05-13T21:41:27.763Z,12.23
2019-05-13T21:43:57.997Z,12.25
2019-05-13T21:46:28.078Z,11.18
2019-05-13T21:48:58.127Z,11.45
2019-05-13T21:51:28.202Z,11.83
2019-05-13T21:53:58.262Z,11.85
2019-05-13T21:56:28.386Z,12.75
2019-05-13T21:58:58.421Z,12.07
2019-05-13T22:01:31.280Z,13.22
2019-05-13T22:04:01.757Z,13.08
2019-05-13T22:06:33.081Z,11.12
2019-05-13T22:09:03.159Z,12.43
2019-05-13T22:11:35.194Z,11.53
2019-05-13T22:16:34.697Z,12.93
2019-05-13T22:19:04.769Z,13.10
2019-05-13T22:21:35.002Z,11.63
2019-05-13T22:24:05.205Z,12.63
2019-05-13T22:26:35.263Z,13.38
2019-05-13T22:29:05.447Z,13.50
2019-05-13T22:31:35.688Z,11.73
2019-05-13T22:34:05.779Z,12.70
2019-05-13T22:36:35.884Z,12.65
2019-05-13T22:39:06.544Z,13.13
2019-05-13T22:41:36.743Z,12.40
2019-05-13T22:44:06.903Z,13.08
2019-05-13T22:46:36.959Z,13.50
2019-05-13T22:49:07.145Z,14.83
2019-05-13T22:51:37.353Z,14.33
2019-05-13T22:54:07.447Z,14.60
2019-05-13T22:56:37.537Z,13.75
2019-05-13T22:59:07.599Z,14.70
2019-05-13T23:01:37.770Z,13.65
2019-05-13T23:04:08.049Z,14.20
2019-05-13T23:06:38.290Z,13.58
2019-05-13T23:09:08.390Z,14.55
2019-05-13T23:11:38.593Z,14.50
2019-05-13T23:14:10.874Z,14.65
2019-05-13T23:16:42.160Z,13.20
2019-05-13T23:19:12.181Z,12.20
2019-05-13T23:21:42.367Z,13.05
2019-05-13T23:24:12.394Z,13.25
2019-05-13T23:26:42.492Z,13.53
2019-05-13T23:29:12.538Z,13.98
2019-05-13T23:31:42.609Z,12.63
2019-05-13T23:34:12.788Z,13.53
2019-05-13T23:36:42.937Z,13.75
2019-05-13T23:39:13.062Z,13.28
2019-05-13T23:41:43.113Z,12.63
2019-05-13T23:44:23.688Z,12.65
2019-05-13T23:49:14.119Z,13.00
2019-05-13T23:51:44.311Z,13.15
2019-05-13T23:54:14.371Z,12.28
2019-05-13T23:56:44.548Z,13.25
2019-05-13T23:59:14.653Z,12.75
